sensor_id;sensor_type;location;lat;lon;timestamp;P1;durP1;ratioP1;P2;durP2;ratioP2
9712;SDS011;4895;50.926;6.870;2023-05-07T00:00:05;8.47;;;6.10;;
9712;SDS011;4895;50.926;6.870;2023-05-07T00:02:33;7.70;;;5.70;;
9712;SDS011;4895;50.926;6.870;2023-05-07T00:04:58;9.67;;;6.50;;
9712;SDS011;4895;50.926;6.870;2023-05-07T00:07:23;9.80;;;5.70;;
9712;SDS011;4895;50.926;6.870;2023-05-07T00:09:49;11.43;;;5.80;;
9712;SDS011;4895;50.926;6.870;2023-05-07T00:12:14;7.73;;;5.30;;
9712;SDS011;4895;50.926;6.870;2023-05-07T00:14:39;7.63;;;5.60;;
9712;SDS011;4895;50.926;6.870;2023-05-07T00:17:05;8.47;;;5.73;;
9712;SDS011;4895;50.926;6.870;2023-05-07T00:19:30;9.37;;;5.73;;
9712;SDS011;4895;50.926;6.870;2023-05-07T00:21:56;7.60;;;5.13;;
9712;SDS011;4895;50.926;6.870;2023-05-07T00:24:23;8.00;;;5.43;;
9712;SDS011;4895;50.926;6.870;2023-05-07T00:26:48;8.10;;;4.80;;
9712;SDS011;4895;50.926;6.870;2023-05-07T00:29:14;7.17;;;4.93;;
9712;SDS011;4895;50.926;6.870;2023-05-07T00:31:39;14.60;;;6.43;;
9712;SDS011;4895;50.926;6.870;2023-05-07T00:34:05;10.90;;;6.47;;
9712;SDS011;4895;50.926;6.870;2023-05-07T00:36:30;8.70;;;5.50;;
9712;SDS011;4895;50.926;6.870;2023-05-07T00:38:56;7.53;;;6.23;;
9712;SDS011;4895;50.926;6.870;2023-05-07T00:41:24;8.17;;;5.70;;
9712;SDS011;4895;50.926;6.870;2023-05-07T00:43:50;8.27;;;5.47;;
9712;SDS011;4895;50.926;6.870;2023-05-07T00:46:16;10.73;;;5.03;;
9712;SDS011;4895;50.926;6.870;2023-05-07T00:48:42;7.93;;;5.47;;
9712;SDS011;4895;50.926;6.870;2023-05-07T00:51:07;8.40;;;5.53;;
9712;SDS011;4895;50.926;6.870;2023-05-07T00:53:34;7.60;;;4.93;;
9712;SDS011;4895;50.926;6.870;2023-05-07T00:55:59;6.23;;;4.77;;
9712;SDS011;4895;50.926;6.870;2023-05-07T00:58:25;6.50;;;5.17;;
9712;SDS011;4895;50.926;6.870;2023-05-07T01:00:51;9.90;;;5.00;;
9712;SDS011;4895;50.926;6.870;2023-05-07T01:03:16;7.40;;;5.03;;
9712;SDS011;4895;50.926;6.870;2023-05-07T01:05:42;9.70;;;5.70;;
9712;SDS011;4895;50.926;6.870;2023-05-07T01:08:08;7.00;;;4.23;;
9712;SDS011;4895;50.926;6.870;2023-05-07T01:10:33;7.40;;;4.40;;
9712;SDS011;4895;50.926;6.870;2023-05-07T01:12:59;6.27;;;4.70;;
9712;SDS011;4895;50.926;6.870;2023-05-07T01:15:25;6.10;;;4.53;;
9712;SDS011;4895;50.926;6.870;2023-05-07T01:17:50;6.27;;;4.87;;
9712;SDS011;4895;50.926;6.870;2023-05-07T01:20:15;6.07;;;4.23;;
9712;SDS011;4895;50.926;6.870;2023-05-07T01:22:43;5.70;;;4.37;;
9712;SDS011;4895;50.926;6.870;2023-05-07T01:25:08;6.17;;;3.73;;
9712;SDS011;4895;50.926;6.870;2023-05-07T01:27:34;7.13;;;4.00;;
9712;SDS011;4895;50.926;6.870;2023-05-07T01:30:00;6.93;;;4.67;;
9712;SDS011;4895;50.926;6.870;2023-05-07T01:32:31;6.50;;;4.27;;
9712;SDS011;4895;50.926;6.870;2023-05-07T01:34:59;8.60;;;4.10;;
9712;SDS011;4895;50.926;6.870;2023-05-07T01:37:25;5.30;;;4.10;;
9712;SDS011;4895;50.926;6.870;2023-05-07T01:39:50;5.23;;;3.90;;
9712;SDS011;4895;50.926;6.870;2023-05-07T01:42:17;11.40;;;3.83;;
9712;SDS011;4895;50.926;6.870;2023-05-07T01:44:42;7.73;;;4.40;;
9712;SDS011;4895;50.926;6.870;2023-05-07T01:47:07;7.03;;;3.83;;
9712;SDS011;4895;50.926;6.870;2023-05-07T01:49:33;6.50;;;4.30;;
9712;SDS011;4895;50.926;6.870;2023-05-07T01:51:59;6.43;;;3.80;;
9712;SDS011;4895;50.926;6.870;2023-05-07T01:54:25;7.07;;;4.60;;
9712;SDS011;4895;50.926;6.870;2023-05-07T01:56:52;6.13;;;4.67;;
9712;SDS011;4895;50.926;6.870;2023-05-07T01:59:17;6.70;;;4.30;;
9712;SDS011;4895;50.926;6.870;2023-05-07T02:01:43;7.87;;;4.40;;
9712;SDS011;4895;50.926;6.870;2023-05-07T02:04:08;6.53;;;4.30;;
9712;SDS011;4895;50.926;6.870;2023-05-07T02:06:33;7.30;;;4.47;;
9712;SDS011;4895;50.926;6.870;2023-05-07T02:08:58;6.33;;;4.60;;
9712;SDS011;4895;50.926;6.870;2023-05-07T02:11:24;7.43;;;4.50;;
9712;SDS011;4895;50.926;6.870;2023-05-07T02:13:50;5.40;;;4.27;;
9712;SDS011;4895;50.926;6.870;2023-05-07T02:16:15;8.30;;;4.13;;
9712;SDS011;4895;50.926;6.870;2023-05-07T02:18:40;5.67;;;4.30;;
9712;SDS011;4895;50.926;6.870;2023-05-07T02:21:06;5.67;;;4.33;;
9712;SDS011;4895;50.926;6.870;2023-05-07T02:23:31;6.40;;;4.50;;
9712;SDS011;4895;50.926;6.870;2023-05-07T02:25:56;6.30;;;4.80;;
9712;SDS011;4895;50.926;6.870;2023-05-07T02:28:21;7.63;;;5.03;;
9712;SDS011;4895;50.926;6.870;2023-05-07T02:30:47;4.70;;;4.00;;
9712;SDS011;4895;50.926;6.870;2023-05-07T02:33:12;5.93;;;4.20;;
9712;SDS011;4895;50.926;6.870;2023-05-07T02:35:38;9.17;;;4.53;;
9712;SDS011;4895;50.926;6.870;2023-05-07T02:38:04;6.67;;;3.80;;
9712;SDS011;4895;50.926;6.870;2023-05-07T02:40:29;8.17;;;4.87;;
9712;SDS011;4895;50.926;6.870;2023-05-07T02:42:54;8.80;;;5.10;;
9712;SDS011;4895;50.926;6.870;2023-05-07T02:45:20;7.60;;;4.60;;
9712;SDS011;4895;50.926;6.870;2023-05-07T02:47:45;6.63;;;4.60;;
9712;SDS011;4895;50.926;6.870;2023-05-07T02:50:11;8.47;;;5.40;;
9712;SDS011;4895;50.926;6.870;2023-05-07T02:52:36;10.33;;;4.70;;
9712;SDS011;4895;50.926;6.870;2023-05-07T02:55:02;7.10;;;4.83;;
9712;SDS011;4895;50.926;6.870;2023-05-07T02:57:27;7.10;;;4.30;;
9712;SDS011;4895;50.926;6.870;2023-05-07T02:59:52;6.33;;;4.20;;
9712;SDS011;4895;50.926;6.870;2023-05-07T03:02:18;5.33;;;4.67;;
9712;SDS011;4895;50.926;6.870;2023-05-07T03:04:43;6.53;;;4.77;;
9712;SDS011;4895;50.926;6.870;2023-05-07T03:07:08;7.63;;;4.63;;
9712;SDS011;4895;50.926;6.870;2023-05-07T03:09:33;8.30;;;4.47;;
9712;SDS011;4895;50.926;6.870;2023-05-07T03:11:59;6.30;;;4.90;;
9712;SDS011;4895;50.926;6.870;2023-05-07T03:14:24;6.60;;;4.13;;
9712;SDS011;4895;50.926;6.870;2023-05-07T03:16:49;7.53;;;4.97;;
9712;SDS011;4895;50.926;6.870;2023-05-07T03:19:15;5.33;;;3.90;;
9712;SDS011;4895;50.926;6.870;2023-05-07T03:21:40;10.10;;;4.23;;
9712;SDS011;4895;50.926;6.870;2023-05-07T03:24:05;6.10;;;4.90;;
9712;SDS011;4895;50.926;6.870;2023-05-07T03:26:31;7.23;;;4.47;;
9712;SDS011;4895;50.926;6.870;2023-05-07T03:28:56;7.50;;;4.20;;
9712;SDS011;4895;50.926;6.870;2023-05-07T03:31:21;11.70;;;4.00;;
9712;SDS011;4895;50.926;6.870;2023-05-07T03:33:50;6.57;;;4.50;;
9712;SDS011;4895;50.926;6.870;2023-05-07T03:36:19;5.90;;;4.00;;
9712;SDS011;4895;50.926;6.870;2023-05-07T03:38:45;8.90;;;5.40;;
9712;SDS011;4895;50.926;6.870;2023-05-07T03:41:11;5.30;;;4.13;;
9712;SDS011;4895;50.926;6.870;2023-05-07T03:43:36;7.57;;;4.70;;
9712;SDS011;4895;50.926;6.870;2023-05-07T03:46:02;8.90;;;4.40;;
9712;SDS011;4895;50.926;6.870;2023-05-07T03:48:27;7.30;;;4.83;;
9712;SDS011;4895;50.926;6.870;2023-05-07T03:50:52;7.43;;;4.80;;
9712;SDS011;4895;50.926;6.870;2023-05-07T03:53:18;7.87;;;4.43;;
9712;SDS011;4895;50.926;6.870;2023-05-07T03:55:43;8.70;;;4.47;;
9712;SDS011;4895;50.926;6.870;2023-05-07T03:58:08;7.43;;;4.70;;
9712;SDS011;4895;50.926;6.870;2023-05-07T04:00:33;5.33;;;4.17;;
9712;SDS011;4895;50.926;6.870;2023-05-07T04:03:03;10.43;;;5.63;;
9712;SDS011;4895;50.926;6.870;2023-05-07T04:05:29;6.10;;;4.70;;
9712;SDS011;4895;50.926;6.870;2023-05-07T04:07:54;10.90;;;4.40;;
9712;SDS011;4895;50.926;6.870;2023-05-07T04:10:20;8.77;;;4.23;;
9712;SDS011;4895;50.926;6.870;2023-05-07T04:12:45;6.97;;;4.60;;
9712;SDS011;4895;50.926;6.870;2023-05-07T04:15:10;6.57;;;4.53;;
9712;SDS011;4895;50.926;6.870;2023-05-07T04:17:35;9.43;;;4.70;;
9712;SDS011;4895;50.926;6.870;2023-05-07T04:20:01;6.40;;;4.90;;
9712;SDS011;4895;50.926;6.870;2023-05-07T04:22:27;10.20;;;4.83;;
9712;SDS011;4895;50.926;6.870;2023-05-07T04:24:52;9.70;;;5.30;;
9712;SDS011;4895;50.926;6.870;2023-05-07T04:27:17;8.03;;;4.80;;
9712;SDS011;4895;50.926;6.870;2023-05-07T04:29:43;6.20;;;4.27;;
9712;SDS011;4895;50.926;6.870;2023-05-07T04:32:12;7.10;;;4.93;;
9712;SDS011;4895;50.926;6.870;2023-05-07T04:34:37;5.87;;;4.40;;
9712;SDS011;4895;50.926;6.870;2023-05-07T04:37:02;6.97;;;4.20;;
9712;SDS011;4895;50.926;6.870;2023-05-07T04:39:28;6.97;;;4.23;;
9712;SDS011;4895;50.926;6.870;2023-05-07T04:41:53;6.40;;;4.40;;
9712;SDS011;4895;50.926;6.870;2023-05-07T04:44:18;8.00;;;4.20;;
9712;SDS011;4895;50.926;6.870;2023-05-07T04:46:43;6.93;;;3.97;;
9712;SDS011;4895;50.926;6.870;2023-05-07T04:49:09;6.40;;;4.50;;
9712;SDS011;4895;50.926;6.870;2023-05-07T04:51:35;7.27;;;4.43;;
9712;SDS011;4895;50.926;6.870;2023-05-07T04:54:00;7.50;;;4.00;;
9712;SDS011;4895;50.926;6.870;2023-05-07T04:56:27;6.90;;;4.20;;
9712;SDS011;4895;50.926;6.870;2023-05-07T04:58:53;7.70;;;4.27;;
9712;SDS011;4895;50.926;6.870;2023-05-07T05:01:18;4.97;;;4.03;;
9712;SDS011;4895;50.926;6.870;2023-05-07T05:03:44;6.50;;;4.40;;
9712;SDS011;4895;50.926;6.870;2023-05-07T05:06:09;7.83;;;4.53;;
9712;SDS011;4895;50.926;6.870;2023-05-07T05:08:35;5.80;;;4.40;;
9712;SDS011;4895;50.926;6.870;2023-05-07T05:11:01;5.40;;;4.13;;
9712;SDS011;4895;50.926;6.870;2023-05-07T05:13:27;5.53;;;4.33;;
9712;SDS011;4895;50.926;6.870;2023-05-07T05:15:52;9.20;;;3.60;;
9712;SDS011;4895;50.926;6.870;2023-05-07T05:18:17;6.40;;;4.27;;
9712;SDS011;4895;50.926;6.870;2023-05-07T05:20:43;7.30;;;4.33;;
9712;SDS011;4895;50.926;6.870;2023-05-07T05:23:08;7.20;;;4.03;;
9712;SDS011;4895;50.926;6.870;2023-05-07T05:25:33;6.33;;;4.20;;
9712;SDS011;4895;50.926;6.870;2023-05-07T05:27:59;7.10;;;4.40;;
9712;SDS011;4895;50.926;6.870;2023-05-07T05:30:24;6.27;;;3.97;;
9712;SDS011;4895;50.926;6.870;2023-05-07T05:32:49;5.67;;;3.60;;
9712;SDS011;4895;50.926;6.870;2023-05-07T05:35:15;5.90;;;4.20;;
9712;SDS011;4895;50.926;6.870;2023-05-07T05:37:40;8.47;;;3.73;;
9712;SDS011;4895;50.926;6.870;2023-05-07T05:40:06;5.50;;;3.80;;
9712;SDS011;4895;50.926;6.870;2023-05-07T05:42:32;6.87;;;3.93;;
9712;SDS011;4895;50.926;6.870;2023-05-07T05:44:57;9.10;;;4.77;;
9712;SDS011;4895;50.926;6.870;2023-05-07T05:47:22;6.67;;;4.03;;
9712;SDS011;4895;50.926;6.870;2023-05-07T05:49:47;5.80;;;4.10;;
9712;SDS011;4895;50.926;6.870;2023-05-07T05:52:13;5.70;;;4.20;;
9712;SDS011;4895;50.926;6.870;2023-05-07T05:54:39;5.77;;;4.00;;
9712;SDS011;4895;50.926;6.870;2023-05-07T05:57:04;9.00;;;4.30;;
9712;SDS011;4895;50.926;6.870;2023-05-07T05:59:29;4.30;;;3.87;;
9712;SDS011;4895;50.926;6.870;2023-05-07T06:01:55;4.50;;;3.67;;
9712;SDS011;4895;50.926;6.870;2023-05-07T06:04:20;8.40;;;3.27;;
9712;SDS011;4895;50.926;6.870;2023-05-07T06:06:45;24.20;;;7.53;;
9712;SDS011;4895;50.926;6.870;2023-05-07T06:09:11;11.10;;;4.90;;
9712;SDS011;4895;50.926;6.870;2023-05-07T06:11:36;8.10;;;4.07;;
9712;SDS011;4895;50.926;6.870;2023-05-07T06:14:01;5.20;;;3.50;;
9712;SDS011;4895;50.926;6.870;2023-05-07T06:16:27;5.60;;;3.37;;
9712;SDS011;4895;50.926;6.870;2023-05-07T06:18:52;6.37;;;3.97;;
9712;SDS011;4895;50.926;6.870;2023-05-07T06:21:17;6.47;;;4.07;;
9712;SDS011;4895;50.926;6.870;2023-05-07T06:23:43;6.03;;;3.93;;
9712;SDS011;4895;50.926;6.870;2023-05-07T06:26:08;5.47;;;3.77;;
9712;SDS011;4895;50.926;6.870;2023-05-07T06:28:33;6.60;;;3.47;;
9712;SDS011;4895;50.926;6.870;2023-05-07T06:31:11;5.90;;;3.00;;
9712;SDS011;4895;50.926;6.870;2023-05-07T06:33:37;6.73;;;2.93;;
9712;SDS011;4895;50.926;6.870;2023-05-07T06:36:03;5.50;;;3.10;;
9712;SDS011;4895;50.926;6.870;2023-05-07T06:38:28;5.40;;;2.90;;
9712;SDS011;4895;50.926;6.870;2023-05-07T06:40:53;5.67;;;3.30;;
9712;SDS011;4895;50.926;6.870;2023-05-07T06:43:20;5.40;;;3.30;;
9712;SDS011;4895;50.926;6.870;2023-05-07T06:45:46;4.10;;;2.70;;
9712;SDS011;4895;50.926;6.870;2023-05-07T06:48:11;4.00;;;2.90;;
9712;SDS011;4895;50.926;6.870;2023-05-07T06:50:36;5.50;;;2.80;;
9712;SDS011;4895;50.926;6.870;2023-05-07T06:53:01;6.27;;;2.67;;
9712;SDS011;4895;50.926;6.870;2023-05-07T06:55:27;4.90;;;2.60;;
9712;SDS011;4895;50.926;6.870;2023-05-07T06:57:52;5.63;;;3.07;;
9712;SDS011;4895;50.926;6.870;2023-05-07T07:00:17;3.43;;;2.60;;
9712;SDS011;4895;50.926;6.870;2023-05-07T07:02:43;6.73;;;2.70;;
9712;SDS011;4895;50.926;6.870;2023-05-07T07:05:08;4.23;;;2.37;;
9712;SDS011;4895;50.926;6.870;2023-05-07T07:07:34;3.70;;;2.30;;
9712;SDS011;4895;50.926;6.870;2023-05-07T07:09:59;5.90;;;2.50;;
9712;SDS011;4895;50.926;6.870;2023-05-07T07:12:24;3.60;;;2.90;;
9712;SDS011;4895;50.926;6.870;2023-05-07T07:14:50;8.27;;;2.40;;
9712;SDS011;4895;50.926;6.870;2023-05-07T07:17:16;4.07;;;2.80;;
9712;SDS011;4895;50.926;6.870;2023-05-07T07:19:41;5.80;;;2.53;;
9712;SDS011;4895;50.926;6.870;2023-05-07T07:22:06;4.23;;;2.53;;
9712;SDS011;4895;50.926;6.870;2023-05-07T07:24:32;5.17;;;2.73;;
9712;SDS011;4895;50.926;6.870;2023-05-07T07:26:57;5.93;;;2.63;;
9712;SDS011;4895;50.926;6.870;2023-05-07T07:29:22;4.13;;;2.30;;
9712;SDS011;4895;50.926;6.870;2023-05-07T07:31:48;5.87;;;2.70;;
9712;SDS011;4895;50.926;6.870;2023-05-07T07:34:14;4.40;;;2.43;;
9712;SDS011;4895;50.926;6.870;2023-05-07T07:36:40;5.37;;;2.70;;
9712;SDS011;4895;50.926;6.870;2023-05-07T07:39:05;3.40;;;2.70;;
9712;SDS011;4895;50.926;6.870;2023-05-07T07:41:31;3.77;;;2.63;;
9712;SDS011;4895;50.926;6.870;2023-05-07T07:43:56;5.40;;;3.43;;
9712;SDS011;4895;50.926;6.870;2023-05-07T07:46:21;3.80;;;2.70;;
9712;SDS011;4895;50.926;6.870;2023-05-07T07:48:46;5.87;;;2.70;;
9712;SDS011;4895;50.926;6.870;2023-05-07T07:51:12;9.80;;;2.73;;
9712;SDS011;4895;50.926;6.870;2023-05-07T07:53:37;6.97;;;2.77;;
9712;SDS011;4895;50.926;6.870;2023-05-07T07:56:02;5.47;;;2.50;;
9712;SDS011;4895;50.926;6.870;2023-05-07T07:58:28;2.90;;;2.10;;
9712;SDS011;4895;50.926;6.870;2023-05-07T08:00:53;11.10;;;3.10;;
9712;SDS011;4895;50.926;6.870;2023-05-07T08:03:20;3.93;;;2.70;;
9712;SDS011;4895;50.926;6.870;2023-05-07T08:05:46;5.73;;;2.90;;
9712;SDS011;4895;50.926;6.870;2023-05-07T08:08:11;4.73;;;2.40;;
9712;SDS011;4895;50.926;6.870;2023-05-07T08:10:37;3.33;;;2.60;;
9712;SDS011;4895;50.926;6.870;2023-05-07T08:13:04;6.73;;;2.97;;
9712;SDS011;4895;50.926;6.870;2023-05-07T08:15:30;5.10;;;2.70;;
9712;SDS011;4895;50.926;6.870;2023-05-07T08:17:55;3.23;;;2.33;;
9712;SDS011;4895;50.926;6.870;2023-05-07T08:20:22;5.60;;;2.53;;
9712;SDS011;4895;50.926;6.870;2023-05-07T08:22:48;3.77;;;2.30;;
9712;SDS011;4895;50.926;6.870;2023-05-07T08:25:13;2.90;;;2.20;;
9712;SDS011;4895;50.926;6.870;2023-05-07T08:27:38;4.10;;;2.60;;
9712;SDS011;4895;50.926;6.870;2023-05-07T08:30:03;4.30;;;2.60;;
9712;SDS011;4895;50.926;6.870;2023-05-07T08:32:29;6.80;;;2.57;;
9712;SDS011;4895;50.926;6.870;2023-05-07T08:34:55;4.57;;;2.50;;
9712;SDS011;4895;50.926;6.870;2023-05-07T08:37:20;4.93;;;2.67;;
9712;SDS011;4895;50.926;6.870;2023-05-07T08:39:45;5.00;;;2.57;;
9712;SDS011;4895;50.926;6.870;2023-05-07T08:42:11;3.77;;;2.70;;
9712;SDS011;4895;50.926;6.870;2023-05-07T08:44:38;3.60;;;2.70;;
9712;SDS011;4895;50.926;6.870;2023-05-07T08:47:03;4.07;;;2.60;;
9712;SDS011;4895;50.926;6.870;2023-05-07T08:49:31;5.47;;;2.63;;
9712;SDS011;4895;50.926;6.870;2023-05-07T08:51:58;3.20;;;2.53;;
9712;SDS011;4895;50.926;6.870;2023-05-07T08:54:24;4.47;;;2.40;;
9712;SDS011;4895;50.926;6.870;2023-05-07T08:56:49;4.00;;;2.57;;
9712;SDS011;4895;50.926;6.870;2023-05-07T08:59:15;6.23;;;2.23;;
9712;SDS011;4895;50.926;6.870;2023-05-07T09:01:40;4.80;;;2.33;;
9712;SDS011;4895;50.926;6.870;2023-05-07T09:04:06;4.57;;;2.50;;
9712;SDS011;4895;50.926;6.870;2023-05-07T09:06:32;4.10;;;2.53;;
9712;SDS011;4895;50.926;6.870;2023-05-07T09:08:58;5.27;;;2.20;;
9712;SDS011;4895;50.926;6.870;2023-05-07T09:11:26;8.30;;;2.50;;
9712;SDS011;4895;50.926;6.870;2023-05-07T09:13:53;3.07;;;2.10;;
9712;SDS011;4895;50.926;6.870;2023-05-07T09:16:20;5.93;;;2.20;;
9712;SDS011;4895;50.926;6.870;2023-05-07T09:18:46;3.00;;;2.03;;
9712;SDS011;4895;50.926;6.870;2023-05-07T09:21:15;5.97;;;2.30;;
9712;SDS011;4895;50.926;6.870;2023-05-07T09:23:42;4.70;;;2.30;;
9712;SDS011;4895;50.926;6.870;2023-05-07T09:26:07;5.53;;;2.63;;
9712;SDS011;4895;50.926;6.870;2023-05-07T09:28:37;5.33;;;2.83;;
9712;SDS011;4895;50.926;6.870;2023-05-07T09:31:04;4.87;;;2.20;;
9712;SDS011;4895;50.926;6.870;2023-05-07T09:33:30;4.57;;;2.57;;
9712;SDS011;4895;50.926;6.870;2023-05-07T09:35:55;4.07;;;2.50;;
9712;SDS011;4895;50.926;6.870;2023-05-07T09:38:20;5.97;;;2.47;;
9712;SDS011;4895;50.926;6.870;2023-05-07T09:40:46;3.83;;;2.13;;
9712;SDS011;4895;50.926;6.870;2023-05-07T09:43:13;3.53;;;1.80;;
9712;SDS011;4895;50.926;6.870;2023-05-07T09:45:38;3.87;;;2.30;;
9712;SDS011;4895;50.926;6.870;2023-05-07T09:48:05;5.40;;;2.43;;
9712;SDS011;4895;50.926;6.870;2023-05-07T09:50:35;4.37;;;2.03;;
9712;SDS011;4895;50.926;6.870;2023-05-07T09:53:03;6.03;;;2.50;;
9712;SDS011;4895;50.926;6.870;2023-05-07T09:55:29;5.30;;;2.07;;
9712;SDS011;4895;50.926;6.870;2023-05-07T09:57:54;5.13;;;2.60;;
9712;SDS011;4895;50.926;6.870;2023-05-07T10:00:20;3.50;;;2.30;;
9712;SDS011;4895;50.926;6.870;2023-05-07T10:02:47;6.80;;;2.57;;
9712;SDS011;4895;50.926;6.870;2023-05-07T10:05:14;3.70;;;2.43;;
9712;SDS011;4895;50.926;6.870;2023-05-07T10:07:40;6.57;;;2.40;;
9712;SDS011;4895;50.926;6.870;2023-05-07T10:10:06;4.70;;;2.30;;
9712;SDS011;4895;50.926;6.870;2023-05-07T10:12:31;5.17;;;2.10;;
9712;SDS011;4895;50.926;6.870;2023-05-07T10:15:02;5.10;;;2.30;;
9712;SDS011;4895;50.926;6.870;2023-05-07T10:17:29;2.93;;;1.90;;
9712;SDS011;4895;50.926;6.870;2023-05-07T10:19:54;3.57;;;2.43;;
9712;SDS011;4895;50.926;6.870;2023-05-07T10:22:19;3.23;;;2.23;;
9712;SDS011;4895;50.926;6.870;2023-05-07T10:24:45;7.27;;;2.30;;
9712;SDS011;4895;50.926;6.870;2023-05-07T10:27:12;4.17;;;1.70;;
9712;SDS011;4895;50.926;6.870;2023-05-07T10:34:53;6.83;;;2.30;;
9712;SDS011;4895;50.926;6.870;2023-05-07T10:37:20;3.40;;;1.97;;
9712;SDS011;4895;50.926;6.870;2023-05-07T10:39:46;3.67;;;2.20;;
9712;SDS011;4895;50.926;6.870;2023-05-07T10:42:12;2.50;;;1.73;;
9712;SDS011;4895;50.926;6.870;2023-05-07T10:44:38;8.03;;;2.20;;
9712;SDS011;4895;50.926;6.870;2023-05-07T10:47:04;6.23;;;2.00;;
9712;SDS011;4895;50.926;6.870;2023-05-07T10:52:21;2.90;;;1.90;;
9712;SDS011;4895;50.926;6.870;2023-05-07T10:54:48;6.00;;;2.00;;
9712;SDS011;4895;50.926;6.870;2023-05-07T10:57:46;3.57;;;1.90;;
9712;SDS011;4895;50.926;6.870;2023-05-07T11:05:30;2.77;;;1.80;;
9712;SDS011;4895;50.926;6.870;2023-05-07T11:08:02;4.83;;;2.50;;
9712;SDS011;4895;50.926;6.870;2023-05-07T11:13:12;4.50;;;2.23;;
9712;SDS011;4895;50.926;6.870;2023-05-07T11:15:38;5.60;;;2.10;;
9712;SDS011;4895;50.926;6.870;2023-05-07T11:18:06;2.73;;;1.80;;
9712;SDS011;4895;50.926;6.870;2023-05-07T11:20:51;3.33;;;1.73;;
9712;SDS011;4895;50.926;6.870;2023-05-07T11:28:27;5.10;;;2.40;;
9712;SDS011;4895;50.926;6.870;2023-05-07T11:30:53;4.13;;;1.83;;
9712;SDS011;4895;50.926;6.870;2023-05-07T11:33:19;3.00;;;1.60;;
9712;SDS011;4895;50.926;6.870;2023-05-07T11:35:44;3.07;;;1.80;;
9712;SDS011;4895;50.926;6.870;2023-05-07T11:38:10;4.03;;;1.80;;
9712;SDS011;4895;50.926;6.870;2023-05-07T11:40:48;2.83;;;1.90;;
9712;SDS011;4895;50.926;6.870;2023-05-07T11:43:19;2.60;;;1.43;;
9712;SDS011;4895;50.926;6.870;2023-05-07T11:45:45;2.90;;;1.90;;
9712;SDS011;4895;50.926;6.870;2023-05-07T11:48:12;5.63;;;2.00;;
9712;SDS011;4895;50.926;6.870;2023-05-07T11:50:49;4.43;;;1.93;;
9712;SDS011;4895;50.926;6.870;2023-05-07T11:53:18;3.60;;;1.70;;
9712;SDS011;4895;50.926;6.870;2023-05-07T11:55:45;2.50;;;1.83;;
9712;SDS011;4895;50.926;6.870;2023-05-07T11:58:12;9.03;;;2.20;;
9712;SDS011;4895;50.926;6.870;2023-05-07T12:00:37;5.53;;;1.90;;
9712;SDS011;4895;50.926;6.870;2023-05-07T12:03:03;5.13;;;2.17;;
9712;SDS011;4895;50.926;6.870;2023-05-07T12:05:29;4.43;;;1.80;;
9712;SDS011;4895;50.926;6.870;2023-05-07T12:07:55;3.00;;;2.00;;
9712;SDS011;4895;50.926;6.870;2023-05-07T12:10:24;2.77;;;1.60;;
9712;SDS011;4895;50.926;6.870;2023-05-07T12:12:50;2.50;;;1.87;;
9712;SDS011;4895;50.926;6.870;2023-05-07T12:15:16;2.50;;;1.70;;
9712;SDS011;4895;50.926;6.870;2023-05-07T12:17:42;3.07;;;1.73;;
9712;SDS011;4895;50.926;6.870;2023-05-07T12:20:07;3.07;;;1.97;;
9712;SDS011;4895;50.926;6.870;2023-05-07T12:22:33;2.73;;;2.10;;
9712;SDS011;4895;50.926;6.870;2023-05-07T12:24:59;4.87;;;1.93;;
9712;SDS011;4895;50.926;6.870;2023-05-07T12:27:25;4.43;;;2.17;;
9712;SDS011;4895;50.926;6.870;2023-05-07T12:29:50;4.43;;;1.80;;
9712;SDS011;4895;50.926;6.870;2023-05-07T12:32:16;2.57;;;1.70;;
9712;SDS011;4895;50.926;6.870;2023-05-07T12:34:42;2.90;;;1.73;;
9712;SDS011;4895;50.926;6.870;2023-05-07T12:37:08;3.90;;;2.13;;
9712;SDS011;4895;50.926;6.870;2023-05-07T12:39:33;4.57;;;1.97;;
9712;SDS011;4895;50.926;6.870;2023-05-07T12:42:05;4.17;;;2.00;;
9712;SDS011;4895;50.926;6.870;2023-05-07T12:44:31;3.03;;;1.97;;
9712;SDS011;4895;50.926;6.870;2023-05-07T12:46:57;4.57;;;1.90;;
9712;SDS011;4895;50.926;6.870;2023-05-07T12:49:23;5.27;;;2.00;;
9712;SDS011;4895;50.926;6.870;2023-05-07T12:51:49;5.23;;;1.87;;
9712;SDS011;4895;50.926;6.870;2023-05-07T12:54:28;5.87;;;2.03;;
9712;SDS011;4895;50.926;6.870;2023-05-07T12:57:06;2.53;;;2.10;;
9712;SDS011;4895;50.926;6.870;2023-05-07T13:02:01;4.73;;;2.40;;
9712;SDS011;4895;50.926;6.870;2023-05-07T13:04:27;6.43;;;2.10;;
9712;SDS011;4895;50.926;6.870;2023-05-07T13:06:52;6.07;;;2.13;;
9712;SDS011;4895;50.926;6.870;2023-05-07T13:09:17;5.97;;;2.97;;
9712;SDS011;4895;50.926;6.870;2023-05-07T13:11:42;4.13;;;2.50;;
9712;SDS011;4895;50.926;6.870;2023-05-07T13:14:08;5.43;;;2.40;;
9712;SDS011;4895;50.926;6.870;2023-05-07T13:16:33;4.47;;;2.63;;
9712;SDS011;4895;50.926;6.870;2023-05-07T13:18:58;5.30;;;2.50;;
9712;SDS011;4895;50.926;6.870;2023-05-07T13:21:24;6.43;;;2.70;;
9712;SDS011;4895;50.926;6.870;2023-05-07T13:23:49;4.07;;;2.40;;
9712;SDS011;4895;50.926;6.870;2023-05-07T13:26:14;4.47;;;2.40;;
9712;SDS011;4895;50.926;6.870;2023-05-07T13:28:40;6.50;;;2.40;;
9712;SDS011;4895;50.926;6.870;2023-05-07T13:31:05;5.30;;;2.50;;
9712;SDS011;4895;50.926;6.870;2023-05-07T13:33:30;5.33;;;2.77;;
9712;SDS011;4895;50.926;6.870;2023-05-07T13:35:55;6.00;;;3.70;;
9712;SDS011;4895;50.926;6.870;2023-05-07T13:38:21;5.37;;;3.10;;
9712;SDS011;4895;50.926;6.870;2023-05-07T13:40:47;4.23;;;2.53;;
9712;SDS011;4895;50.926;6.870;2023-05-07T13:43:12;7.70;;;2.87;;
9712;SDS011;4895;50.926;6.870;2023-05-07T13:45:37;4.93;;;2.50;;
9712;SDS011;4895;50.926;6.870;2023-05-07T13:48:03;4.83;;;3.00;;
9712;SDS011;4895;50.926;6.870;2023-05-07T13:50:28;4.90;;;3.40;;
9712;SDS011;4895;50.926;6.870;2023-05-07T13:52:54;4.53;;;2.80;;
9712;SDS011;4895;50.926;6.870;2023-05-07T13:55:20;5.10;;;2.90;;
9712;SDS011;4895;50.926;6.870;2023-05-07T13:57:46;3.70;;;2.50;;
9712;SDS011;4895;50.926;6.870;2023-05-07T14:00:12;9.27;;;2.77;;
9712;SDS011;4895;50.926;6.870;2023-05-07T14:02:38;6.03;;;3.33;;
9712;SDS011;4895;50.926;6.870;2023-05-07T14:05:04;6.70;;;3.50;;
9712;SDS011;4895;50.926;6.870;2023-05-07T14:07:30;5.33;;;3.13;;
9712;SDS011;4895;50.926;6.870;2023-05-07T14:09:56;5.50;;;2.80;;
9712;SDS011;4895;50.926;6.870;2023-05-07T14:12:21;8.07;;;4.43;;
9712;SDS011;4895;50.926;6.870;2023-05-07T14:14:47;6.23;;;3.53;;
9712;SDS011;4895;50.926;6.870;2023-05-07T14:17:12;5.17;;;3.20;;
9712;SDS011;4895;50.926;6.870;2023-05-07T14:19:37;5.00;;;3.40;;
9712;SDS011;4895;50.926;6.870;2023-05-07T14:22:03;6.43;;;3.17;;
9712;SDS011;4895;50.926;6.870;2023-05-07T14:24:28;5.47;;;2.90;;
9712;SDS011;4895;50.926;6.870;2023-05-07T14:26:53;8.27;;;2.93;;
9712;SDS011;4895;50.926;6.870;2023-05-07T14:29:19;6.40;;;3.10;;
9712;SDS011;4895;50.926;6.870;2023-05-07T14:31:44;5.77;;;3.40;;
9712;SDS011;4895;50.926;6.870;2023-05-07T14:34:10;8.93;;;3.67;;
9712;SDS011;4895;50.926;6.870;2023-05-07T14:36:35;7.73;;;3.63;;
9712;SDS011;4895;50.926;6.870;2023-05-07T14:39:01;6.90;;;4.00;;
9712;SDS011;4895;50.926;6.870;2023-05-07T14:41:26;6.07;;;3.83;;
9712;SDS011;4895;50.926;6.870;2023-05-07T14:43:51;6.10;;;4.30;;
9712;SDS011;4895;50.926;6.870;2023-05-07T14:46:19;9.90;;;4.30;;
9712;SDS011;4895;50.926;6.870;2023-05-07T14:48:45;7.23;;;3.60;;
9712;SDS011;4895;50.926;6.870;2023-05-07T14:51:11;6.93;;;4.07;;
9712;SDS011;4895;50.926;6.870;2023-05-07T14:53:36;15.83;;;3.60;;
9712;SDS011;4895;50.926;6.870;2023-05-07T14:56:02;6.70;;;3.60;;
9712;SDS011;4895;50.926;6.870;2023-05-07T14:58:28;5.00;;;3.67;;
9712;SDS011;4895;50.926;6.870;2023-05-07T15:00:53;6.60;;;3.77;;
9712;SDS011;4895;50.926;6.870;2023-05-07T15:03:18;8.30;;;3.60;;
9712;SDS011;4895;50.926;6.870;2023-05-07T15:05:44;5.40;;;3.13;;
9712;SDS011;4895;50.926;6.870;2023-05-07T15:08:09;4.97;;;2.40;;
9712;SDS011;4895;50.926;6.870;2023-05-07T15:10:35;3.77;;;2.07;;
9712;SDS011;4895;50.926;6.870;2023-05-07T15:13:05;5.40;;;1.97;;
9712;SDS011;4895;50.926;6.870;2023-05-07T15:15:31;3.60;;;2.13;;
9712;SDS011;4895;50.926;6.870;2023-05-07T15:17:56;7.00;;;2.10;;
9712;SDS011;4895;50.926;6.870;2023-05-07T15:20:21;4.23;;;1.97;;
9712;SDS011;4895;50.926;6.870;2023-05-07T15:22:46;5.43;;;2.10;;
9712;SDS011;4895;50.926;6.870;2023-05-07T15:25:12;3.40;;;2.37;;
9712;SDS011;4895;50.926;6.870;2023-05-07T15:27:37;4.63;;;2.50;;
9712;SDS011;4895;50.926;6.870;2023-05-07T15:30:02;5.70;;;2.90;;